sensor_id;sensor_type;location;lat;lon;timestamp;temperature;humidity
26262;DHT22;13988;52.446;13.280;2023-01-24T00:00:11;1.40;99.90
26262;DHT22;13988;52.446;13.280;2023-01-24T00:02:37;1.30;99.90
26262;DHT22;13988;52.446;13.280;2023-01-24T00:05:03;1.40;99.90
26262;DHT22;13988;52.446;13.280;2023-01-24T00:07:30;1.40;99.90
26262;DHT22;13988;52.446;13.280;2023-01-24T00:09:55;1.30;99.90
26262;DHT22;13988;52.446;13.280;2023-01-24T00:12:21;1.30;99.90
26262;DHT22;13988;52.446;13.280;2023-01-24T00:14:47;1.30;99.90
26262;DHT22;13988;52.446;13.280;2023-01-24T00:17:13;1.30;99.90
26262;DHT22;13988;52.446;13.280;2023-01-24T00:19:39;1.30;99.90
26262;DHT22;13988;52.446;13.280;2023-01-24T00:22:05;1.30;99.90
26262;DHT22;13988;52.446;13.280;2023-01-24T00:24:32;1.40;99.90
26262;DHT22;13988;52.446;13.280;2023-01-24T00:27:00;1.30;99.90
26262;DHT22;13988;52.446;13.280;2023-01-24T00:29:26;1.30;99.90
26262;DHT22;13988;52.446;13.280;2023-01-24T00:31:52;1.30;99.90
26262;DHT22;13988;52.446;13.280;2023-01-24T00:34:17;1.30;99.90
26262;DHT22;13988;52.446;13.280;2023-01-24T00:36:43;1.40;99.90
26262;DHT22;13988;52.446;13.280;2023-01-24T00:39:10;1.30;99.90
26262;DHT22;13988;52.446;13.280;2023-01-24T00:41:36;1.30;99.90
26262;DHT22;13988;52.446;13.280;2023-01-24T00:44:01;1.30;99.90
26262;DHT22;13988;52.446;13.280;2023-01-24T00:46:27;1.20;99.90
26262;DHT22;13988;52.446;13.280;2023-01-24T00:48:52;1.20;99.90
26262;DHT22;13988;52.446;13.280;2023-01-24T00:51:18;1.20;99.90
26262;DHT22;13988;52.446;13.280;2023-01-24T00:53:44;1.20;99.90
26262;DHT22;13988;52.446;13.280;2023-01-24T00:56:09;1.20;99.90
26262;DHT22;13988;52.446;13.280;2023-01-24T00:58:35;1.10;99.90
26262;DHT22;13988;52.446;13.280;2023-01-24T01:01:01;1.10;99.90
26262;DHT22;13988;52.446;13.280;2023-01-24T01:03:30;1.10;99.90
26262;DHT22;13988;52.446;13.280;2023-01-24T01:06:23;1.10;99.90
26262;DHT22;13988;52.446;13.280;2023-01-24T01:08:49;1.10;99.90
26262;DHT22;13988;52.446;13.280;2023-01-24T01:11:15;1.10;99.90
26262;DHT22;13988;52.446;13.280;2023-01-24T01:13:40;1.00;99.90
26262;DHT22;13988;52.446;13.280;2023-01-24T01:16:17;1.00;99.90
26262;DHT22;13988;52.446;13.280;2023-01-24T01:18:45;1.00;99.90
26262;DHT22;13988;52.446;13.280;2023-01-24T01:21:13;1.00;99.90
26262;DHT22;13988;52.446;13.280;2023-01-24T01:23:39;1.00;99.90
26262;DHT22;13988;52.446;13.280;2023-01-24T01:26:07;1.00;99.90
26262;DHT22;13988;52.446;13.280;2023-01-24T01:28:34;0.90;99.90
26262;DHT22;13988;52.446;13.280;2023-01-24T01:31:00;1.00;99.90
26262;DHT22;13988;52.446;13.280;2023-01-24T01:33:26;1.00;99.90
26262;DHT22;13988;52.446;13.280;2023-01-24T01:35:52;0.90;99.90
26262;DHT22;13988;52.446;13.280;2023-01-24T01:38:18;1.00;99.90
26262;DHT22;13988;52.446;13.280;2023-01-24T01:40:44;1.00;99.90
26262;DHT22;13988;52.446;13.280;2023-01-24T01:43:17;1.00;99.90
26262;DHT22;13988;52.446;13.280;2023-01-24T01:45:50;1.00;99.90
26262;DHT22;13988;52.446;13.280;2023-01-24T01:48:39;1.00;99.90
26262;DHT22;13988;52.446;13.280;2023-01-24T01:53:43;0.90;99.90
26262;DHT22;13988;52.446;13.280;2023-01-24T01:56:18;0.90;99.90
26262;DHT22;13988;52.446;13.280;2023-01-24T01:58:46;0.90;99.90
26262;DHT22;13988;52.446;13.280;2023-01-24T02:01:12;0.90;99.90
26262;DHT22;13988;52.446;13.280;2023-01-24T02:03:48;0.90;99.90
26262;DHT22;13988;52.446;13.280;2023-01-24T02:06:27;0.90;99.90
26262;DHT22;13988;52.446;13.280;2023-01-24T02:08:56;0.80;99.90
26262;DHT22;13988;52.446;13.280;2023-01-24T02:11:23;0.90;99.90
26262;DHT22;13988;52.446;13.280;2023-01-24T02:14:10;0.90;99.90
26262;DHT22;13988;52.446;13.280;2023-01-24T02:16:55;0.80;99.90
26262;DHT22;13988;52.446;13.280;2023-01-24T02:19:49;0.80;99.90
26262;DHT22;13988;52.446;13.280;2023-01-24T02:22:23;0.80;99.90
26262;DHT22;13988;52.446;13.280;2023-01-24T02:25:06;0.80;99.90
26262;DHT22;13988;52.446;13.280;2023-01-24T02:27:33;0.80;99.90
26262;DHT22;13988;52.446;13.280;2023-01-24T02:29:59;0.80;99.90
26262;DHT22;13988;52.446;13.280;2023-01-24T02:32:25;0.80;99.90
26262;DHT22;13988;52.446;13.280;2023-01-24T02:34:51;0.80;99.90
26262;DHT22;13988;52.446;13.280;2023-01-24T02:37:16;0.80;99.90
26262;DHT22;13988;52.446;13.280;2023-01-24T02:40:02;0.80;99.90
26262;DHT22;13988;52.446;13.280;2023-01-24T02:42:32;0.80;99.90
26262;DHT22;13988;52.446;13.280;2023-01-24T02:47:47;0.80;99.90
26262;DHT22;13988;52.446;13.280;2023-01-24T02:50:17;0.80;99.90
26262;DHT22;13988;52.446;13.280;2023-01-24T02:52:45;0.70;99.90
26262;DHT22;13988;52.446;13.280;2023-01-24T02:55:29;0.80;99.90
26262;DHT22;13988;52.446;13.280;2023-01-24T02:57:56;0.70;99.90
26262;DHT22;13988;52.446;13.280;2023-01-24T03:00:40;0.80;99.90
26262;DHT22;13988;52.446;13.280;2023-01-24T03:03:07;0.60;99.90
26262;DHT22;13988;52.446;13.280;2023-01-24T03:05:34;0.60;99.90
26262;DHT22;13988;52.446;13.280;2023-01-24T03:08:12;0.60;99.90
26262;DHT22;13988;52.446;13.280;2023-01-24T03:10:38;0.60;99.90
26262;DHT22;13988;52.446;13.280;2023-01-24T03:13:04;0.60;99.90
26262;DHT22;13988;52.446;13.280;2023-01-24T03:15:48;0.60;99.90
26262;DHT22;13988;52.446;13.280;2023-01-24T03:18:32;0.60;99.90
26262;DHT22;13988;52.446;13.280;2023-01-24T03:21:16;0.60;99.90
26262;DHT22;13988;52.446;13.280;2023-01-24T03:24:00;0.60;99.90
26262;DHT22;13988;52.446;13.280;2023-01-24T03:26:44;0.50;99.90
26262;DHT22;13988;52.446;13.280;2023-01-24T03:29:28;0.60;99.90
26262;DHT22;13988;52.446;13.280;2023-01-24T03:32:12;0.60;99.90
26262;DHT22;13988;52.446;13.280;2023-01-24T03:34:56;0.50;99.90
26262;DHT22;13988;52.446;13.280;2023-01-24T03:37:23;0.60;99.90
26262;DHT22;13988;52.446;13.280;2023-01-24T03:40:13;0.50;99.90
26262;DHT22;13988;52.446;13.280;2023-01-24T03:42:40;0.60;99.90
26262;DHT22;13988;52.446;13.280;2023-01-24T03:45:25;0.50;99.90
26262;DHT22;13988;52.446;13.280;2023-01-24T03:47:56;0.60;99.90
26262;DHT22;13988;52.446;13.280;2023-01-24T03:50:23;0.50;99.90
26262;DHT22;13988;52.446;13.280;2023-01-24T03:53:09;0.50;99.90
26262;DHT22;13988;52.446;13.280;2023-01-24T03:55:35;0.50;99.90
26262;DHT22;13988;52.446;13.280;2023-01-24T03:58:01;0.50;99.90
26262;DHT22;13988;52.446;13.280;2023-01-24T04:00:27;0.50;99.90
26262;DHT22;13988;52.446;13.280;2023-01-24T04:02:53;0.50;99.90
26262;DHT22;13988;52.446;13.280;2023-01-24T04:05:19;0.50;99.90
26262;DHT22;13988;52.446;13.280;2023-01-24T04:07:46;0.50;99.90
26262;DHT22;13988;52.446;13.280;2023-01-24T04:10:12;0.50;99.90
26262;DHT22;13988;52.446;13.280;2023-01-24T04:12:39;0.50;99.90
26262;DHT22;13988;52.446;13.280;2023-01-24T04:15:06;0.50;99.90
26262;DHT22;13988;52.446;13.280;2023-01-24T04:17:32;0.50;99.90
26262;DHT22;13988;52.446;13.280;2023-01-24T04:19:58;0.50;99.90
26262;DHT22;13988;52.446;13.280;2023-01-24T04:22:24;0.50;99.90
26262;DHT22;13988;52.446;13.280;2023-01-24T04:24:49;0.50;99.90
26262;DHT22;13988;52.446;13.280;2023-01-24T04:27:15;0.40;99.90
26262;DHT22;13988;52.446;13.280;2023-01-24T04:29:41;0.40;99.90
26262;DHT22;13988;52.446;13.280;2023-01-24T04:32:07;0.50;99.90
26262;DHT22;13988;52.446;13.280;2023-01-24T04:34:32;0.50;99.90
26262;DHT22;13988;52.446;13.280;2023-01-24T04:36:58;0.40;99.90
26262;DHT22;13988;52.446;13.280;2023-01-24T04:39:24;0.40;99.90
26262;DHT22;13988;52.446;13.280;2023-01-24T04:41:49;0.40;99.90
26262;DHT22;13988;52.446;13.280;2023-01-24T04:44:15;0.40;99.90
26262;DHT22;13988;52.446;13.280;2023-01-24T04:46:40;0.40;99.90
26262;DHT22;13988;52.446;13.280;2023-01-24T04:49:06;0.50;99.90
26262;DHT22;13988;52.446;13.280;2023-01-24T04:51:32;0.50;99.90
26262;DHT22;13988;52.446;13.280;2023-01-24T04:53:57;0.50;99.90
26262;DHT22;13988;52.446;13.280;2023-01-24T04:56:23;0.40;99.90
26262;DHT22;13988;52.446;13.280;2023-01-24T04:58:48;0.50;99.90
26262;DHT22;13988;52.446;13.280;2023-01-24T05:01:14;0.40;99.90
26262;DHT22;13988;52.446;13.280;2023-01-24T05:03:39;0.50;99.90
26262;DHT22;13988;52.446;13.280;2023-01-24T05:06:05;0.50;99.90
26262;DHT22;13988;52.446;13.280;2023-01-24T05:08:31;0.50;99.90
26262;DHT22;13988;52.446;13.280;2023-01-24T05:11:01;0.50;99.90
26262;DHT22;13988;52.446;13.280;2023-01-24T05:13:27;0.50;99.90
26262;DHT22;13988;52.446;13.280;2023-01-24T05:15:52;0.40;99.90
26262;DHT22;13988;52.446;13.280;2023-01-24T05:18:18;0.40;99.90
26262;DHT22;13988;52.446;13.280;2023-01-24T05:20:45;0.40;99.90
26262;DHT22;13988;52.446;13.280;2023-01-24T05:23:10;0.40;99.90
26262;DHT22;13988;52.446;13.280;2023-01-24T05:25:36;0.40;99.90
26262;DHT22;13988;52.446;13.280;2023-01-24T05:28:02;0.40;99.90
26262;DHT22;13988;52.446;13.280;2023-01-24T05:30:27;0.40;99.90
26262;DHT22;13988;52.446;13.280;2023-01-24T05:32:57;0.40;99.90
26262;DHT22;13988;52.446;13.280;2023-01-24T05:35:22;0.40;99.90
26262;DHT22;13988;52.446;13.280;2023-01-24T05:37:48;0.40;99.90
26262;DHT22;13988;52.446;13.280;2023-01-24T05:40:14;0.70;99.90
26262;DHT22;13988;52.446;13.280;2023-01-24T05:42:40;0.50;99.90
26262;DHT22;13988;52.446;13.280;2023-01-24T05:45:08;0.40;99.90
26262;DHT22;13988;52.446;13.280;2023-01-24T05:47:33;0.40;99.90
26262;DHT22;13988;52.446;13.280;2023-01-24T05:49:59;0.40;99.90
26262;DHT22;13988;52.446;13.280;2023-01-24T05:52:25;0.40;99.90
26262;DHT22;13988;52.446;13.280;2023-01-24T05:54:52;0.40;99.90
26262;DHT22;13988;52.446;13.280;2023-01-24T05:57:17;0.40;99.90
26262;DHT22;13988;52.446;13.280;2023-01-24T05:59:43;0.50;99.90
26262;DHT22;13988;52.446;13.280;2023-01-24T06:02:09;0.50;99.90
26262;DHT22;13988;52.446;13.280;2023-01-24T06:04:35;0.40;99.90
26262;DHT22;13988;52.446;13.280;2023-01-24T06:07:00;0.40;99.90
26262;DHT22;13988;52.446;13.280;2023-01-24T06:09:26;0.40;99.90
26262;DHT22;13988;52.446;13.280;2023-01-24T06:11:52;0.40;99.90
26262;DHT22;13988;52.446;13.280;2023-01-24T06:14:17;0.40;99.90
26262;DHT22;13988;52.446;13.280;2023-01-24T06:16:44;0.40;99.90
26262;DHT22;13988;52.446;13.280;2023-01-24T06:19:11;0.40;99.90
26262;DHT22;13988;52.446;13.280;2023-01-24T06:24:23;0.60;99.90
26262;DHT22;13988;52.446;13.280;2023-01-24T06:26:50;0.40;99.90
26262;DHT22;13988;52.446;13.280;2023-01-24T06:29:17;0.40;99.90
26262;DHT22;13988;52.446;13.280;2023-01-24T06:35:15;0.40;99.90
26262;DHT22;13988;52.446;13.280;2023-01-24T06:37:47;0.40;99.90
26262;DHT22;13988;52.446;13.280;2023-01-24T06:40:16;0.40;99.90
26262;DHT22;13988;52.446;13.280;2023-01-24T06:42:42;0.40;99.90
26262;DHT22;13988;52.446;13.280;2023-01-24T06:45:09;0.40;99.90
26262;DHT22;13988;52.446;13.280;2023-01-24T06:47:35;0.40;99.90
26262;DHT22;13988;52.446;13.280;2023-01-24T06:50:00;0.40;99.90
26262;DHT22;13988;52.446;13.280;2023-01-24T06:52:27;0.40;99.90
26262;DHT22;13988;52.446;13.280;2023-01-24T06:54:52;0.40;99.90
26262;DHT22;13988;52.446;13.280;2023-01-24T06:57:18;0.40;99.90
26262;DHT22;13988;52.446;13.280;2023-01-24T06:59:44;0.40;99.90
26262;DHT22;13988;52.446;13.280;2023-01-24T07:02:10;0.30;99.90
26262;DHT22;13988;52.446;13.280;2023-01-24T07:04:35;0.30;99.90
26262;DHT22;13988;52.446;13.280;2023-01-24T07:07:02;0.40;99.90
26262;DHT22;13988;52.446;13.280;2023-01-24T07:09:28;0.30;99.90
26262;DHT22;13988;52.446;13.280;2023-01-24T07:11:54;0.30;99.90
26262;DHT22;13988;52.446;13.280;2023-01-24T07:14:22;0.40;99.90
26262;DHT22;13988;52.446;13.280;2023-01-24T07:16:48;0.30;99.90
26262;DHT22;13988;52.446;13.280;2023-01-24T07:19:18;0.30;99.90
26262;DHT22;13988;52.446;13.280;2023-01-24T07:21:44;0.40;99.90
26262;DHT22;13988;52.446;13.280;2023-01-24T07:24:18;0.40;99.90
26262;DHT22;13988;52.446;13.280;2023-01-24T07:26:44;0.40;99.90
26262;DHT22;13988;52.446;13.280;2023-01-24T07:29:10;0.40;99.90
26262;DHT22;13988;52.446;13.280;2023-01-24T07:31:37;0.50;99.90
26262;DHT22;13988;52.446;13.280;2023-01-24T07:34:03;0.50;99.90
26262;DHT22;13988;52.446;13.280;2023-01-24T07:36:28;0.50;99.90
26262;DHT22;13988;52.446;13.280;2023-01-24T07:38:57;0.40;99.90
26262;DHT22;13988;52.446;13.280;2023-01-24T07:41:23;0.50;99.90
26262;DHT22;13988;52.446;13.280;2023-01-24T07:43:49;0.50;99.90
26262;DHT22;13988;52.446;13.280;2023-01-24T07:46:15;0.40;99.90
26262;DHT22;13988;52.446;13.280;2023-01-24T07:48:41;0.40;99.90
26262;DHT22;13988;52.446;13.280;2023-01-24T07:51:06;0.50;99.90
26262;DHT22;13988;52.446;13.280;2023-01-24T07:53:32;0.40;99.90
26262;DHT22;13988;52.446;13.280;2023-01-24T07:55:59;0.50;99.90
26262;DHT22;13988;52.446;13.280;2023-01-24T07:58:24;0.50;99.90
26262;DHT22;13988;52.446;13.280;2023-01-24T08:00:50;0.50;99.90
26262;DHT22;13988;52.446;13.280;2023-01-24T08:03:16;0.70;99.90
26262;DHT22;13988;52.446;13.280;2023-01-24T08:05:42;0.70;99.90
26262;DHT22;13988;52.446;13.280;2023-01-24T08:08:08;0.70;99.90
26262;DHT22;13988;52.446;13.280;2023-01-24T08:10:34;0.70;99.90
26262;DHT22;13988;52.446;13.280;2023-01-24T08:13:00;0.60;99.90
26262;DHT22;13988;52.446;13.280;2023-01-24T08:15:26;0.80;99.90
26262;DHT22;13988;52.446;13.280;2023-01-24T08:17:51;0.60;99.90
26262;DHT22;13988;52.446;13.280;2023-01-24T08:20:17;0.60;99.90
26262;DHT22;13988;52.446;13.280;2023-01-24T08:22:43;0.70;99.90
26262;DHT22;13988;52.446;13.280;2023-01-24T08:25:09;0.70;99.90
26262;DHT22;13988;52.446;13.280;2023-01-24T08:27:35;0.80;99.90
26262;DHT22;13988;52.446;13.280;2023-01-24T08:30:01;0.80;99.90
26262;DHT22;13988;52.446;13.280;2023-01-24T08:32:27;0.80;99.90
26262;DHT22;13988;52.446;13.280;2023-01-24T08:34:53;0.80;99.90
26262;DHT22;13988;52.446;13.280;2023-01-24T08:37:18;0.80;99.90
26262;DHT22;13988;52.446;13.280;2023-01-24T08:39:44;0.80;99.90
26262;DHT22;13988;52.446;13.280;2023-01-24T08:42:10;0.80;99.90
26262;DHT22;13988;52.446;13.280;2023-01-24T08:44:36;0.80;99.90
26262;DHT22;13988;52.446;13.280;2023-01-24T08:47:01;0.80;99.90
26262;DHT22;13988;52.446;13.280;2023-01-24T08:49:28;0.80;99.90
26262;DHT22;13988;52.446;13.280;2023-01-24T08:51:54;0.80;99.90
26262;DHT22;13988;52.446;13.280;2023-01-24T08:54:28;0.80;99.90
26262;DHT22;13988;52.446;13.280;2023-01-24T08:56:54;0.90;99.90
26262;DHT22;13988;52.446;13.280;2023-01-24T08:59:21;1.00;99.90
26262;DHT22;13988;52.446;13.280;2023-01-24T09:01:46;0.90;99.90
26262;DHT22;13988;52.446;13.280;2023-01-24T09:04:12;0.80;99.90
26262;DHT22;13988;52.446;13.280;2023-01-24T09:06:38;0.90;99.90
26262;DHT22;13988;52.446;13.280;2023-01-24T09:09:03;1.00;99.90
26262;DHT22;13988;52.446;13.280;2023-01-24T09:11:30;1.00;99.90
26262;DHT22;13988;52.446;13.280;2023-01-24T09:13:56;1.00;99.90
26262;DHT22;13988;52.446;13.280;2023-01-24T09:16:22;1.10;99.90
26262;DHT22;13988;52.446;13.280;2023-01-24T09:18:48;1.00;99.90
26262;DHT22;13988;52.446;13.280;2023-01-24T09:21:17;1.10;99.90
26262;DHT22;13988;52.446;13.280;2023-01-24T09:23:43;1.20;99.90
26262;DHT22;13988;52.446;13.280;2023-01-24T09:26:09;1.10;99.90
26262;DHT22;13988;52.446;13.280;2023-01-24T09:28:35;1.10;99.90
26262;DHT22;13988;52.446;13.280;2023-01-24T09:31:01;1.10;99.90
26262;DHT22;13988;52.446;13.280;2023-01-24T09:33:27;1.20;99.90
26262;DHT22;13988;52.446;13.280;2023-01-24T09:35:58;1.10;99.90
26262;DHT22;13988;52.446;13.280;2023-01-24T09:38:26;1.10;99.90
26262;DHT22;13988;52.446;13.280;2023-01-24T09:44:04;1.10;99.90
26262;DHT22;13988;52.446;13.280;2023-01-24T09:46:42;1.20;99.90
26262;DHT22;13988;52.446;13.280;2023-01-24T09:52:07;1.10;99.90
26262;DHT22;13988;52.446;13.280;2023-01-24T09:57:56;1.30;99.90
26262;DHT22;13988;52.446;13.280;2023-01-24T10:02:49;1.30;99.90
26262;DHT22;13988;52.446;13.280;2023-01-24T10:05:16;1.40;99.90
26262;DHT22;13988;52.446;13.280;2023-01-24T10:13:38;1.50;99.90
26262;DHT22;13988;52.446;13.280;2023-01-24T10:19:22;1.50;99.90
26262;DHT22;13988;52.446;13.280;2023-01-24T10:24:28;1.70;99.90
26262;DHT22;13988;52.446;13.280;2023-01-24T10:26:55;1.60;99.90
26262;DHT22;13988;52.446;13.280;2023-01-24T10:29:24;1.70;99.90
26262;DHT22;13988;52.446;13.280;2023-01-24T10:32:01;1.70;99.90
26262;DHT22;13988;52.446;13.280;2023-01-24T10:34:39;1.80;99.90
26262;DHT22;13988;52.446;13.280;2023-01-24T10:37:20;1.80;99.90
26262;DHT22;13988;52.446;13.280;2023-01-24T10:39:46;1.70;99.90
26262;DHT22;13988;52.446;13.280;2023-01-24T10:44:48;1.70;99.90
26262;DHT22;13988;52.446;13.280;2023-01-24T10:50:00;1.80;99.90
26262;DHT22;13988;52.446;13.280;2023-01-24T10:52:26;1.90;99.90
26262;DHT22;13988;52.446;13.280;2023-01-24T10:55:00;1.80;99.90
26262;DHT22;13988;52.446;13.280;2023-01-24T10:57:48;1.80;99.90
26262;DHT22;13988;52.446;13.280;2023-01-24T11:02:40;1.80;99.90
26262;DHT22;13988;52.446;13.280;2023-01-24T11:05:12;1.70;99.90
26262;DHT22;13988;52.446;13.280;2023-01-24T11:07:45;1.80;99.90
26262;DHT22;13988;52.446;13.280;2023-01-24T11:10:23;1.90;99.90
26262;DHT22;13988;52.446;13.280;2023-01-24T11:12:57;2.00;99.90
26262;DHT22;13988;52.446;13.280;2023-01-24T11:15:26;2.00;99.90
26262;DHT22;13988;52.446;13.280;2023-01-24T11:23:24;2.00;99.90
26262;DHT22;13988;52.446;13.280;2023-01-24T11:25:56;1.90;99.90
26262;DHT22;13988;52.446;13.280;2023-01-24T11:28:29;2.00;99.90
26262;DHT22;13988;52.446;13.280;2023-01-24T11:30:56;2.00;99.90
26262;DHT22;13988;52.446;13.280;2023-01-24T11:41:53;2.00;99.90
26262;DHT22;13988;52.446;13.280;2023-01-24T11:45:07;1.90;99.90
26262;DHT22;13988;52.446;13.280;2023-01-24T11:47:49;1.90;99.90
26262;DHT22;13988;52.446;13.280;2023-01-24T12:03:53;1.90;99.90
26262;DHT22;13988;52.446;13.280;2023-01-24T12:07:25;2.00;99.90
26262;DHT22;13988;52.446;13.280;2023-01-24T12:09:25;1.90;99.90
26262;DHT22;13988;52.446;13.280;2023-01-24T12:22:25;1.90;99.90
26262;DHT22;13988;52.446;13.280;2023-01-24T12:25:02;2.00;99.90
26262;DHT22;13988;52.446;13.280;2023-01-24T12:27:31;2.10;99.90
26262;DHT22;13988;52.446;13.280;2023-01-24T12:30:06;2.10;99.90
26262;DHT22;13988;52.446;13.280;2023-01-24T12:32:46;2.00;99.90
26262;DHT22;13988;52.446;13.280;2023-01-24T12:35:22;2.00;99.90
26262;DHT22;13988;52.446;13.280;2023-01-24T12:38:34;2.00;99.90
26262;DHT22;13988;52.446;13.280;2023-01-24T12:41:06;2.00;99.90
26262;DHT22;13988;52.446;13.280;2023-01-24T12:49:37;2.20;99.90
26262;DHT22;13988;52.446;13.280;2023-01-24T12:52:41;2.00;99.90
26262;DHT22;13988;52.446;13.280;2023-01-24T12:58:39;2.00;99.90
26262;DHT22;13988;52.446;13.280;2023-01-24T13:07:02;2.20;99.90
26262;DHT22;13988;52.446;13.280;2023-01-24T13:12:23;2.10;99.90
26262;DHT22;13988;52.446;13.280;2023-01-24T13:20:47;2.10;99.90
26262;DHT22;13988;52.446;13.280;2023-01-24T13:34:20;2.20;99.90
26262;DHT22;13988;52.446;13.280;2023-01-24T13:36:49;2.10;99.90
26262;DHT22;13988;52.446;13.280;2023-01-24T13:39:35;2.20;99.90
26262;DHT22;13988;52.446;13.280;2023-01-24T13:44:38;2.30;99.90
26262;DHT22;13988;52.446;13.280;2023-01-24T13:49:45;2.10;99.90
26262;DHT22;13988;52.446;13.280;2023-01-24T13:52:49;2.10;99.90
26262;DHT22;13988;52.446;13.280;2023-01-24T14:00:58;2.30;99.90
26262;DHT22;13988;52.446;13.280;2023-01-24T14:03:28;2.20;99.90
26262;DHT22;13988;52.446;13.280;2023-01-24T14:11:20;2.00;99.90
26262;DHT22;13988;52.446;13.280;2023-01-24T14:18:59;2.20;99.90
26262;DHT22;13988;52.446;13.280;2023-01-24T14:24:23;2.20;99.90
26262;DHT22;13988;52.446;13.280;2023-01-24T14:26:51;2.10;99.90
26262;DHT22;13988;52.446;13.280;2023-01-24T14:29:18;2.10;99.90
26262;DHT22;13988;52.446;13.280;2023-01-24T14:31:46;2.10;99.90
26262;DHT22;13988;52.446;13.280;2023-01-24T14:36:48;2.00;99.90
26262;DHT22;13988;52.446;13.280;2023-01-24T14:39:21;2.00;99.90
26262;DHT22;13988;52.446;13.280;2023-01-24T14:41:51;2.10;99.90
26262;DHT22;13988;52.446;13.280;2023-01-24T14:47:03;2.10;99.90
26262;DHT22;13988;52.446;13.280;2023-01-24T14:49:45;2.00;99.90
26262;DHT22;13988;52.446;13.280;2023-01-24T14:52:25;2.10;99.90
26262;DHT22;13988;52.446;13.280;2023-01-24T14:55:01;2.10;99.90
26262;DHT22;13988;52.446;13.280;2023-01-24T14:57:29;2.10;99.90
26262;DHT22;13988;52.446;13.280;2023-01-24T15:00:27;2.20;99.90
26262;DHT22;13988;52.446;13.280;2023-01-24T15:02:57;2.20;99.90
26262;DHT22;13988;52.446;13.280;2023-01-24T15:05:35;2.20;99.90
26262;DHT22;13988;52.446;13.280;2023-01-24T15:08:03;2.10;99.90
26262;DHT22;13988;52.446;13.280;2023-01-24T15:10:34;2.10;99.90
26262;DHT22;13988;52.446;13.280;2023-01-24T15:13:06;2.00;99.90
26262;DHT22;13988;52.446;13.280;2023-01-24T15:15:33;2.00;99.90
26262;DHT22;13988;52.446;13.280;2023-01-24T15:18:04;2.00;99.90
26262;DHT22;13988;52.446;13.280;2023-01-24T15:20:31;1.90;99.90
26262;DHT22;13988;52.446;13.280;2023-01-24T15:22:58;1.90;99.90
26262;DHT22;13988;52.446;13.280;2023-01-24T15:25:30;2.00;99.90
26262;DHT22;13988;52.446;13.280;2023-01-24T15:28:07;1.90;99.90
26262;DHT22;13988;52.446;13.280;2023-01-24T15:30:33;1.90;99.90
26262;DHT22;13988;52.446;13.280;2023-01-24T15:33:08;1.90;99.90
26262;DHT22;13988;52.446;13.280;2023-01-24T15:40:29;1.90;99.90
26262;DHT22;13988;52.446;13.280;2023-01-24T15:42:56;1.90;99.90
26262;DHT22;13988;52.446;13.280;2023-01-24T15:45:46;1.90;99.90
26262;DHT22;13988;52.446;13.280;2023-01-24T15:48:22;2.00;99.90
26262;DHT22;13988;52.446;13.280;2023-01-24T15:50:52;2.00;99.90
26262;DHT22;13988;52.446;13.280;2023-01-24T15:53:40;1.90;99.90
26262;DHT22;13988;52.446;13.280;2023-01-24T15:56:14;1.90;99.90
26262;DHT22;13988;52.446;13.280;2023-01-24T15:58:43;2.00;99.90
26262;DHT22;13988;52.446;13.280;2023-01-24T16:01:11;2.00;99.90
26262;DHT22;13988;52.446;13.280;2023-01-24T16:03:36;1.90;99.90
26262;DHT22;13988;52.446;13.280;2023-01-24T16:06:02;1.90;99.90
26262;DHT22;13988;52.446;13.280;2023-01-24T16:08:28;1.90;99.90
26262;DHT22;13988;52.446;13.280;2023-01-24T16:10:54;1.80;99.90
26262;DHT22;13988;52.446;13.280;2023-01-24T16:13:29;1.90;99.90
26262;DHT22;13988;52.446;13.280;2023-01-24T16:15:57;1.80;99.90
26262;DHT22;13988;52.446;13.280;2023-01-24T16:18:23;1.90;99.90
26262;DHT22;13988;52.446;13.280;2023-01-24T16:20:49;1.90;99.90
26262;DHT22;13988;52.446;13.280;2023-01-24T16:23:15;1.90;99.90
26262;DHT22;13988;52.446;13.280;2023-01-24T16:25:41;1.90;99.90
26262;DHT22;13988;52.446;13.280;2023-01-24T16:28:22;1.90;99.90
26262;DHT22;13988;52.446;13.280;2023-01-24T16:30:49;1.90;99.90
26262;DHT22;13988;52.446;13.280;2023-01-24T16:33:19;1.90;99.90
26262;DHT22;13988;52.446;13.280;2023-01-24T16:35:45;1.90;99.90
26262;DHT22;13988;52.446;13.280;2023-01-24T16:38:12;2.10;99.90
26262;DHT22;13988;52.446;13.280;2023-01-24T16:40:39;1.90;99.90
26262;DHT22;13988;52.446;13.280;2023-01-24T16:43:06;2.00;99.90
26262;DHT22;13988;52.446;13.280;2023-01-24T16:45:32;2.00;99.90
26262;DHT22;13988;52.446;13.280;2023-01-24T16:47:58;2.00;99.90
26262;DHT22;13988;52.446;13.280;2023-01-24T16:50:24;2.00;99.90
26262;DHT22;13988;52.446;13.280;2023-01-24T16:52:49;1.90;99.90
26262;DHT22;13988;52.446;13.280;2023-01-24T16:55:15;1.90;99.90
26262;DHT22;13988;52.446;13.280;2023-01-24T16:57:41;1.90;99.90
26262;DHT22;13988;52.446;13.280;2023-01-24T17:00:09;1.80;99.90
26262;DHT22;13988;52.446;13.280;2023-01-24T17:02:40;1.80;99.90
26262;DHT22;13988;52.446;13.280;2023-01-24T17:05:07;1.80;99.90
26262;DHT22;13988;52.446;13.280;2023-01-24T17:07:32;1.80;99.90
26262;DHT22;13988;52.446;13.280;2023-01-24T17:09:58;1.90;99.90
26262;DHT22;13988;52.446;13.280;2023-01-24T17:12:24;1.90;99.90
26262;DHT22;13988;52.446;13.280;2023-01-24T17:14:49;1.80;99.90
26262;DHT22;13988;52.446;13.280;2023-01-24T17:17:15;1.80;99.90
26262;DHT22;13988;52.446;13.280;2023-01-24T17:19:41;1.90;99.90
26262;DHT22;13988;52.446;13.280;2023-01-24T17:22:06;2.00;99.90
26262;DHT22;13988;52.446;13.280;2023-01-24T17:24:32;1.90;99.90
26262;DHT22;13988;52.446;13.280;2023-01-24T17:26:58;1.90;99.90
26262;DHT22;13988;52.446;13.280;2023-01-24T17:29:23;1.80;99.90
26262;DHT22;13988;52.446;13.280;2023-01-24T17:31:53;1.80;99.90
26262;DHT22;13988;52.446;13.280;2023-01-24T17:34:19;1.80;99.90
26262;DHT22;13988;52.446;13.280;2023-01-24T17:36:45;1.80;99.90
26262;DHT22;13988;52.446;13.280;2023-01-24T17:39:11;1.80;99.90
26262;DHT22;13988;52.446;13.280;2023-01-24T17:41:37;1.70;99.90
26262;DHT22;13988;52.446;13.280;2023-01-24T17:44:03;1.70;99.90
26262;DHT22;13988;52.446;13.280;2023-01-24T17:46:29;1.90;99.90
26262;DHT22;13988;52.446;13.280;2023-01-24T17:48:55;1.70;99.90
26262;DHT22;13988;52.446;13.280;2023-01-24T17:51:20;1.70;99.90
26262;DHT22;13988;52.446;13.280;2023-01-24T17:53:46;1.80;99.90
26262;DHT22;13988;52.446;13.280;2023-01-24T17:56:13;1.80;99.90
26262;DHT22;13988;52.446;13.280;2023-01-24T17:58:39;1.80;99.90
26262;DHT22;13988;52.446;13.280;2023-01-24T18:01:05;1.80;99.90
26262;DHT22;13988;52.446;13.280;2023-01-24T18:03:32;1.80;99.90
26262;DHT22;13988;52.446;13.280;2023-01-24T18:06:01;1.70;99.90
26262;DHT22;13988;52.446;13.280;2023-01-24T18:08:27;1.70;99.90
26262;DHT22;13988;52.446;13.280;2023-01-24T18:10:53;1.70;99.90
26262;DHT22;13988;52.446;13.280;2023-01-24T18:13:19;1.70;99.90